X  Close Metar Aviation Weather Data     EGHH Bournemouth Airport
Temperature
8°C Temperature
6°C Dewpoint
87% Humidity



Wind
13 MPH
21 KM/H
6 M/S
11 KTS



210°
SSW
Current Conditions

Light Rain Light Rain
Pressure 1007.92 (hPa) - 29.76 (inHg)
Visibility 4.3 (mile) - 7 (km)
Airport
Airport-code EGHH

Location: Bournemouth Airport
Distance: 20 (mi)

Metar:
EGHH 061050Z 21011KT 7000 -RA FEW020 SCT036 BKN045 08/06 Q1008

Time: 06-12-2021 10:50 GMT